sensor_id;sensor_type;location;lat;lon;timestamp;pressure;altitude;pressure_sealevel;temperature;humidity
49827;BME280;35715;51.570;6.036;2023-04-30T00:01:08;102208.66;;;10.13;80.32
49827;BME280;35715;51.570;6.036;2023-04-30T00:03:35;102203.41;;;10.22;79.22
49827;BME280;35715;51.570;6.036;2023-04-30T00:06:00;102199.13;;;10.31;78.52
49827;BME280;35715;51.570;6.036;2023-04-30T00:08:31;102199.13;;;10.31;78.31
49827;BME280;35715;51.570;6.036;2023-04-30T00:10:56;102199.13;;;10.31;78.82
49827;BME280;35715;51.570;6.036;2023-04-30T00:13:21;102202.53;;;10.21;79.22
49827;BME280;35715;51.570;6.036;2023-04-30T00:15:46;102195.47;;;10.29;78.70
49827;BME280;35715;51.570;6.036;2023-04-30T00:18:20;102201.56;;;10.29;78.54
49827;BME280;35715;51.570;6.036;2023-04-30T00:20:45;102202.59;;;10.32;77.98
49827;BME280;35715;51.570;6.036;2023-04-30T00:23:10;102209.50;;;10.22;78.87
49827;BME280;35715;51.570;6.036;2023-04-30T00:25:35;102209.16;;;10.09;79.98
49827;BME280;35715;51.570;6.036;2023-04-30T00:28:03;102205.81;;;10.10;79.56
49827;BME280;35715;51.570;6.036;2023-04-30T00:30:28;102206.38;;;10.16;79.35
49827;BME280;35715;51.570;6.036;2023-04-30T00:32:53;102207.75;;;10.12;79.36
49827;BME280;35715;51.570;6.036;2023-04-30T00:35:19;102209.19;;;10.00;80.60
49827;BME280;35715;51.570;6.036;2023-04-30T00:37:45;102210.94;;;9.91;81.22
49827;BME280;35715;51.570;6.036;2023-04-30T00:40:11;102206.69;;;9.91;80.69
49827;BME280;35715;51.570;6.036;2023-04-30T00:42:36;102205.84;;;9.82;81.43
49827;BME280;35715;51.570;6.036;2023-04-30T00:45:02;102206.81;;;9.74;82.52
49827;BME280;35715;51.570;6.036;2023-04-30T00:47:27;102213.53;;;9.63;83.24
49827;BME280;35715;51.570;6.036;2023-04-30T00:49:52;102216.44;;;9.57;83.67
49827;BME280;35715;51.570;6.036;2023-04-30T00:52:18;102212.31;;;9.59;83.33
49827;BME280;35715;51.570;6.036;2023-04-30T00:54:43;102211.16;;;9.56;83.60
49827;BME280;35715;51.570;6.036;2023-04-30T00:57:08;102216.00;;;9.53;83.16
49827;BME280;35715;51.570;6.036;2023-04-30T00:59:35;102218.59;;;9.53;82.77
49827;BME280;35715;51.570;6.036;2023-04-30T01:02:01;102217.19;;;9.56;82.62
49827;BME280;35715;51.570;6.036;2023-04-30T01:04:26;102218.13;;;9.57;82.36
49827;BME280;35715;51.570;6.036;2023-04-30T01:06:52;102212.69;;;9.54;82.51
49827;BME280;35715;51.570;6.036;2023-04-30T01:09:18;102210.00;;;9.44;83.63
49827;BME280;35715;51.570;6.036;2023-04-30T01:16:41;102211.50;;;9.41;83.40
49827;BME280;35715;51.570;6.036;2023-04-30T01:30:41;102205.72;;;9.16;85.36
49827;BME280;35715;51.570;6.036;2023-04-30T01:33:09;102203.16;;;9.08;86.62
49827;BME280;35715;51.570;6.036;2023-04-30T01:41:09;102203.97;;;8.98;87.25
49827;BME280;35715;51.570;6.036;2023-04-30T01:43:44;102207.28;;;8.97;87.14
49827;BME280;35715;51.570;6.036;2023-04-30T01:46:34;102201.69;;;8.92;88.16
49827;BME280;35715;51.570;6.036;2023-04-30T01:51:49;102205.19;;;8.84;88.75
49827;BME280;35715;51.570;6.036;2023-04-30T01:54:25;102215.47;;;8.93;88.24
49827;BME280;35715;51.570;6.036;2023-04-30T01:57:02;102209.13;;;8.98;87.13
49827;BME280;35715;51.570;6.036;2023-04-30T01:59:38;102207.88;;;8.94;87.15
49827;BME280;35715;51.570;6.036;2023-04-30T02:02:04;102209.56;;;8.94;86.84
49827;BME280;35715;51.570;6.036;2023-04-30T02:04:30;102217.28;;;8.94;86.85
49827;BME280;35715;51.570;6.036;2023-04-30T02:06:55;102218.34;;;8.87;86.83
49827;BME280;35715;51.570;6.036;2023-04-30T02:09:27;102205.97;;;8.83;87.00
49827;BME280;35715;51.570;6.036;2023-04-30T02:11:52;102214.13;;;8.79;87.29
49827;BME280;35715;51.570;6.036;2023-04-30T02:14:21;102215.97;;;8.80;87.01
49827;BME280;35715;51.570;6.036;2023-04-30T02:16:47;102211.88;;;8.82;86.92
49827;BME280;35715;51.570;6.036;2023-04-30T02:19:16;102222.03;;;8.72;87.82
49827;BME280;35715;51.570;6.036;2023-04-30T02:21:41;102216.56;;;8.68;87.62
49827;BME280;35715;51.570;6.036;2023-04-30T02:24:06;102226.13;;;8.61;88.98
49827;BME280;35715;51.570;6.036;2023-04-30T02:26:32;102218.84;;;8.57;89.21
49827;BME280;35715;51.570;6.036;2023-04-30T02:28:58;102220.53;;;8.56;88.68
49827;BME280;35715;51.570;6.036;2023-04-30T02:31:24;102220.69;;;8.58;88.28
49827;BME280;35715;51.570;6.036;2023-04-30T02:33:49;102219.59;;;8.64;87.53
49827;BME280;35715;51.570;6.036;2023-04-30T02:36:14;102223.25;;;8.66;86.99
49827;BME280;35715;51.570;6.036;2023-04-30T02:38:43;102215.09;;;8.62;87.56
49827;BME280;35715;51.570;6.036;2023-04-30T02:41:09;102214.50;;;8.56;88.00
49827;BME280;35715;51.570;6.036;2023-04-30T02:43:34;102207.81;;;8.49;87.96
49827;BME280;35715;51.570;6.036;2023-04-30T02:45:59;102209.19;;;8.45;88.69
49827;BME280;35715;51.570;6.036;2023-04-30T02:50:53;102208.56;;;8.39;90.00
49827;BME280;35715;51.570;6.036;2023-04-30T02:53:18;102205.97;;;8.39;89.26
49827;BME280;35715;51.570;6.036;2023-04-30T02:55:43;102208.41;;;8.38;88.98
49827;BME280;35715;51.570;6.036;2023-04-30T02:58:10;102209.31;;;8.38;89.00
49827;BME280;35715;51.570;6.036;2023-04-30T03:00:36;102207.78;;;8.40;88.63
49827;BME280;35715;51.570;6.036;2023-04-30T03:03:01;102207.94;;;8.42;88.33
49827;BME280;35715;51.570;6.036;2023-04-30T03:05:27;102203.56;;;8.32;88.97
49827;BME280;35715;51.570;6.036;2023-04-30T03:07:57;102200.53;;;8.27;89.79
49827;BME280;35715;51.570;6.036;2023-04-30T03:10:22;102205.38;;;8.24;89.98
49827;BME280;35715;51.570;6.036;2023-04-30T03:12:48;102202.34;;;8.20;90.04
49827;BME280;35715;51.570;6.036;2023-04-30T03:15:13;102194.78;;;8.21;89.70
49827;BME280;35715;51.570;6.036;2023-04-30T03:20:08;102196.47;;;8.21;89.89
49827;BME280;35715;51.570;6.036;2023-04-30T03:22:34;102189.94;;;8.15;91.00
49827;BME280;35715;51.570;6.036;2023-04-30T03:24:59;102193.09;;;8.13;90.48
49827;BME280;35715;51.570;6.036;2023-04-30T03:27:25;102203.88;;;8.17;90.66
49827;BME280;35715;51.570;6.036;2023-04-30T03:32:23;102202.34;;;8.11;91.00
49827;BME280;35715;51.570;6.036;2023-04-30T03:34:49;102205.66;;;8.18;90.40
49827;BME280;35715;51.570;6.036;2023-04-30T03:37:14;102210.50;;;8.15;89.89
49827;BME280;35715;51.570;6.036;2023-04-30T03:39:41;102204.91;;;8.11;90.07
49827;BME280;35715;51.570;6.036;2023-04-30T03:42:06;102209.91;;;8.18;89.80
49827;BME280;35715;51.570;6.036;2023-04-30T03:44:31;102207.34;;;8.18;89.34
49827;BME280;35715;51.570;6.036;2023-04-30T03:46:57;102206.91;;;8.22;89.15
49827;BME280;35715;51.570;6.036;2023-04-30T03:49:23;102212.03;;;8.22;88.79
49827;BME280;35715;51.570;6.036;2023-04-30T03:51:48;102217.34;;;8.24;88.23
49827;BME280;35715;51.570;6.036;2023-04-30T03:54:13;102217.03;;;8.21;88.33
49827;BME280;35715;51.570;6.036;2023-04-30T03:56:39;102223.34;;;8.15;88.45
49827;BME280;35715;51.570;6.036;2023-04-30T03:59:16;102221.88;;;8.17;87.97
49827;BME280;35715;51.570;6.036;2023-04-30T04:01:41;102222.47;;;8.15;88.21
49827;BME280;35715;51.570;6.036;2023-04-30T04:04:07;102222.59;;;8.08;88.71
49827;BME280;35715;51.570;6.036;2023-04-30T04:06:32;102212.44;;;8.00;89.25
49827;BME280;35715;51.570;6.036;2023-04-30T04:08:58;102222.75;;;8.00;89.86
49827;BME280;35715;51.570;6.036;2023-04-30T04:11:23;102214.41;;;7.94;90.17
49827;BME280;35715;51.570;6.036;2023-04-30T04:13:48;102210.78;;;7.84;90.59
49827;BME280;35715;51.570;6.036;2023-04-30T04:16:14;102223.00;;;7.77;91.05
49827;BME280;35715;51.570;6.036;2023-04-30T04:18:43;102219.06;;;7.81;91.03
49827;BME280;35715;51.570;6.036;2023-04-30T04:21:09;102216.66;;;7.82;90.96
49827;BME280;35715;51.570;6.036;2023-04-30T04:23:34;102218.16;;;7.80;91.08
49827;BME280;35715;51.570;6.036;2023-04-30T04:26:00;102215.16;;;7.85;91.02
49827;BME280;35715;51.570;6.036;2023-04-30T04:31:17;102207.47;;;7.85;90.92
49827;BME280;35715;51.570;6.036;2023-04-30T04:33:43;102212.13;;;7.80;91.42
49827;BME280;35715;51.570;6.036;2023-04-30T04:36:08;102213.94;;;7.81;91.68
49827;BME280;35715;51.570;6.036;2023-04-30T04:38:33;102220.91;;;7.91;91.27
49827;BME280;35715;51.570;6.036;2023-04-30T04:40:59;102223.03;;;7.86;91.13
49827;BME280;35715;51.570;6.036;2023-04-30T04:43:24;102221.19;;;7.85;91.54
49827;BME280;35715;51.570;6.036;2023-04-30T04:45:49;102218.78;;;7.87;91.67
49827;BME280;35715;51.570;6.036;2023-04-30T04:50:44;102223.34;;;7.89;91.55
49827;BME280;35715;51.570;6.036;2023-04-30T04:53:09;102238.44;;;7.86;92.07
49827;BME280;35715;51.570;6.036;2023-04-30T04:55:34;102230.59;;;7.85;92.67
49827;BME280;35715;51.570;6.036;2023-04-30T04:58:04;102232.53;;;7.87;92.48
49827;BME280;35715;51.570;6.036;2023-04-30T05:00:29;102236.19;;;7.89;92.43
49827;BME280;35715;51.570;6.036;2023-04-30T05:02:54;102242.06;;;7.88;93.12
49827;BME280;35715;51.570;6.036;2023-04-30T05:05:19;102240.25;;;7.96;92.72
49827;BME280;35715;51.570;6.036;2023-04-30T05:07:47;102245.56;;;7.97;92.55
49827;BME280;35715;51.570;6.036;2023-04-30T05:10:14;102249.97;;;7.98;93.02
49827;BME280;35715;51.570;6.036;2023-04-30T05:12:39;102252.25;;;8.04;92.45
49827;BME280;35715;51.570;6.036;2023-04-30T05:15:04;102258.59;;;8.08;92.57
49827;BME280;35715;51.570;6.036;2023-04-30T05:17:30;102255.13;;;8.07;92.08
49827;BME280;35715;51.570;6.036;2023-04-30T05:19:56;102251.78;;;8.08;92.13
49827;BME280;35715;51.570;6.036;2023-04-30T05:22:22;102257.22;;;8.11;92.81
49827;BME280;35715;51.570;6.036;2023-04-30T05:24:47;102252.25;;;8.22;92.13
49827;BME280;35715;51.570;6.036;2023-04-30T05:27:12;102258.91;;;8.20;92.81
49827;BME280;35715;51.570;6.036;2023-04-30T05:29:54;102254.22;;;8.24;92.65
49827;BME280;35715;51.570;6.036;2023-04-30T05:32:20;102254.97;;;8.23;93.13
49827;BME280;35715;51.570;6.036;2023-04-30T05:34:46;102258.47;;;8.24;93.27
49827;BME280;35715;51.570;6.036;2023-04-30T05:37:11;102251.50;;;8.23;92.93
49827;BME280;35715;51.570;6.036;2023-04-30T05:39:39;102254.53;;;8.27;92.85
49827;BME280;35715;51.570;6.036;2023-04-30T05:42:04;102257.56;;;8.32;93.69
49827;BME280;35715;51.570;6.036;2023-04-30T05:44:30;102253.91;;;8.39;92.65
49827;BME280;35715;51.570;6.036;2023-04-30T05:46:55;102253.81;;;8.46;93.51
49827;BME280;35715;51.570;6.036;2023-04-30T05:49:37;102250.94;;;8.51;93.80
49827;BME280;35715;51.570;6.036;2023-04-30T05:52:02;102252.28;;;8.57;92.88
49827;BME280;35715;51.570;6.036;2023-04-30T05:54:28;102250.03;;;8.60;92.57
49827;BME280;35715;51.570;6.036;2023-04-30T05:56:53;102247.44;;;8.60;92.79
49827;BME280;35715;51.570;6.036;2023-04-30T05:59:19;102246.25;;;8.65;94.00
49827;BME280;35715;51.570;6.036;2023-04-30T06:01:44;102247.44;;;8.68;92.84
49827;BME280;35715;51.570;6.036;2023-04-30T06:04:10;102244.72;;;8.67;93.42
49827;BME280;35715;51.570;6.036;2023-04-30T06:06:35;102251.69;;;8.77;93.75
49827;BME280;35715;51.570;6.036;2023-04-30T06:09:01;102243.97;;;8.77;94.68
49827;BME280;35715;51.570;6.036;2023-04-30T06:11:28;102238.69;;;8.75;93.78
49827;BME280;35715;51.570;6.036;2023-04-30T06:13:53;102246.66;;;8.87;93.03
49827;BME280;35715;51.570;6.036;2023-04-30T06:16:18;102242.28;;;8.86;92.49
49827;BME280;35715;51.570;6.036;2023-04-30T06:18:55;102242.44;;;8.87;92.83
49827;BME280;35715;51.570;6.036;2023-04-30T06:21:20;102243.94;;;8.94;92.81
49827;BME280;35715;51.570;6.036;2023-04-30T06:23:49;102247.69;;;9.06;93.63
49827;BME280;35715;51.570;6.036;2023-04-30T06:26:15;102245.09;;;9.15;93.41
49827;BME280;35715;51.570;6.036;2023-04-30T06:28:44;102243.50;;;9.35;91.25
49827;BME280;35715;51.570;6.036;2023-04-30T06:31:10;102237.50;;;9.62;91.30
49827;BME280;35715;51.570;6.036;2023-04-30T06:33:36;102240.63;;;9.96;89.40
49827;BME280;35715;51.570;6.036;2023-04-30T06:36:01;102242.78;;;10.57;87.13
49827;BME280;35715;51.570;6.036;2023-04-30T06:38:28;102239.03;;;11.12;82.46
49827;BME280;35715;51.570;6.036;2023-04-30T06:40:54;102235.03;;;11.66;80.37
49827;BME280;35715;51.570;6.036;2023-04-30T06:43:19;102239.22;;;12.25;77.42
49827;BME280;35715;51.570;6.036;2023-04-30T06:45:45;102234.34;;;12.61;75.46
49827;BME280;35715;51.570;6.036;2023-04-30T06:48:12;102227.00;;;12.88;72.65
49827;BME280;35715;51.570;6.036;2023-04-30T06:50:37;102232.03;;;12.96;71.34
49827;BME280;35715;51.570;6.036;2023-04-30T06:53:09;102223.91;;;13.14;71.94
49827;BME280;35715;51.570;6.036;2023-04-30T06:55:34;102232.91;;;13.29;70.95
49827;BME280;35715;51.570;6.036;2023-04-30T06:58:01;102233.22;;;13.66;70.36
49827;BME280;35715;51.570;6.036;2023-04-30T07:00:26;102231.19;;;13.96;68.82
49827;BME280;35715;51.570;6.036;2023-04-30T07:02:51;102239.59;;;14.28;66.33
49827;BME280;35715;51.570;6.036;2023-04-30T07:05:17;102233.53;;;14.75;66.17
49827;BME280;35715;51.570;6.036;2023-04-30T07:07:43;102232.41;;;14.71;63.87
49827;BME280;35715;51.570;6.036;2023-04-30T07:10:09;102228.97;;;15.07;63.69
49827;BME280;35715;51.570;6.036;2023-04-30T07:12:34;102237.16;;;15.37;62.20
49827;BME280;35715;51.570;6.036;2023-04-30T07:14:59;102234.16;;;15.07;63.68
49827;BME280;35715;51.570;6.036;2023-04-30T07:17:25;102233.59;;;15.23;62.95
49827;BME280;35715;51.570;6.036;2023-04-30T07:19:51;102231.44;;;15.55;61.06
49827;BME280;35715;51.570;6.036;2023-04-30T07:22:16;102223.31;;;16.01;58.98
49827;BME280;35715;51.570;6.036;2023-04-30T07:24:41;102229.38;;;15.88;60.27
49827;BME280;35715;51.570;6.036;2023-04-30T07:27:07;102233.31;;;15.94;60.53
49827;BME280;35715;51.570;6.036;2023-04-30T07:29:37;102223.38;;;16.54;57.94
49827;BME280;35715;51.570;6.036;2023-04-30T07:32:02;102221.06;;;16.85;58.61
49827;BME280;35715;51.570;6.036;2023-04-30T07:34:28;102217.38;;;16.68;56.12
49827;BME280;35715;51.570;6.036;2023-04-30T07:36:53;102218.06;;;16.66;55.63
49827;BME280;35715;51.570;6.036;2023-04-30T07:41:49;102231.06;;;17.19;57.21
49827;BME280;35715;51.570;6.036;2023-04-30T07:44:15;102231.72;;;17.59;55.59
49827;BME280;35715;51.570;6.036;2023-04-30T07:46:40;102231.13;;;18.06;55.13
49827;BME280;35715;51.570;6.036;2023-04-30T07:49:05;102227.53;;;18.04;52.09
49827;BME280;35715;51.570;6.036;2023-04-30T07:51:31;102230.59;;;17.83;54.34
49827;BME280;35715;51.570;6.036;2023-04-30T07:53:56;102230.19;;;17.62;52.34
49827;BME280;35715;51.570;6.036;2023-04-30T07:56:22;102232.38;;;17.98;53.13
49827;BME280;35715;51.570;6.036;2023-04-30T07:58:52;102231.97;;;18.81;53.38
49827;BME280;35715;51.570;6.036;2023-04-30T08:01:17;102231.16;;;18.97;50.91
49827;BME280;35715;51.570;6.036;2023-04-30T08:03:42;102229.72;;;18.87;50.82
49827;BME280;35715;51.570;6.036;2023-04-30T08:06:08;102231.16;;;18.97;50.39
49827;BME280;35715;51.570;6.036;2023-04-30T08:08:33;102237.72;;;19.71;49.36
49827;BME280;35715;51.570;6.036;2023-04-30T08:10:58;102248.09;;;19.69;47.99
49827;BME280;35715;51.570;6.036;2023-04-30T08:13:23;102242.28;;;20.08;48.86
49827;BME280;35715;51.570;6.036;2023-04-30T08:15:49;102241.59;;;20.47;48.58
49827;BME280;35715;51.570;6.036;2023-04-30T08:18:16;102234.69;;;20.65;47.32
49827;BME280;35715;51.570;6.036;2023-04-30T08:20:41;102235.47;;;21.00;44.97
49827;BME280;35715;51.570;6.036;2023-04-30T08:23:07;102235.44;;;21.18;46.01
49827;BME280;35715;51.570;6.036;2023-04-30T08:25:32;102233.09;;;20.87;45.04
49827;BME280;35715;51.570;6.036;2023-04-30T08:27:59;102224.88;;;21.17;45.66
49827;BME280;35715;51.570;6.036;2023-04-30T08:30:24;102228.38;;;21.17;46.14
49827;BME280;35715;51.570;6.036;2023-04-30T08:32:49;102238.06;;;21.96;44.23
49827;BME280;35715;51.570;6.036;2023-04-30T08:35:15;102238.72;;;22.12;44.71
49827;BME280;35715;51.570;6.036;2023-04-30T08:40:13;102224.38;;;22.67;43.49
49827;BME280;35715;51.570;6.036;2023-04-30T08:42:40;102232.94;;;22.84;41.19
49827;BME280;35715;51.570;6.036;2023-04-30T08:45:10;102223.28;;;23.07;40.97
49827;BME280;35715;51.570;6.036;2023-04-30T08:47:36;102226.38;;;23.42;41.45
49827;BME280;35715;51.570;6.036;2023-04-30T08:50:02;102232.09;;;23.08;39.47
49827;BME280;35715;51.570;6.036;2023-04-30T08:52:27;102227.06;;;22.68;39.87
49827;BME280;35715;51.570;6.036;2023-04-30T08:54:53;102223.06;;;23.24;40.17
49827;BME280;35715;51.570;6.036;2023-04-30T08:57:21;102223.88;;;23.21;40.84
49827;BME280;35715;51.570;6.036;2023-04-30T08:59:48;102217.19;;;22.63;40.31
49827;BME280;35715;51.570;6.036;2023-04-30T09:02:13;102221.28;;;22.77;41.32
49827;BME280;35715;51.570;6.036;2023-04-30T09:04:39;102222.53;;;23.56;41.01
49827;BME280;35715;51.570;6.036;2023-04-30T09:07:04;102224.03;;;23.03;39.23
49827;BME280;35715;51.570;6.036;2023-04-30T09:15:00;102210.88;;;26.03;38.36
49827;BME280;35715;51.570;6.036;2023-04-30T09:17:26;102211.19;;;26.52;37.28
49827;BME280;35715;51.570;6.036;2023-04-30T09:19:52;102208.88;;;27.05;36.61
49827;BME280;35715;51.570;6.036;2023-04-30T09:22:21;102211.31;;;26.95;37.97
49827;BME280;35715;51.570;6.036;2023-04-30T09:24:47;102211.97;;;27.25;36.59
49827;BME280;35715;51.570;6.036;2023-04-30T09:27:22;102209.47;;;27.77;36.59
49827;BME280;35715;51.570;6.036;2023-04-30T09:29:49;102204.06;;;28.22;36.33
49827;BME280;35715;51.570;6.036;2023-04-30T09:32:14;102196.53;;;27.96;35.16
49827;BME280;35715;51.570;6.036;2023-04-30T09:34:40;102196.59;;;27.99;33.95
49827;BME280;35715;51.570;6.036;2023-04-30T09:37:06;102185.34;;;28.14;33.88
49827;BME280;35715;51.570;6.036;2023-04-30T09:39:32;102194.19;;;28.14;32.44
49827;BME280;35715;51.570;6.036;2023-04-30T09:42:07;102189.88;;;28.20;31.17
49827;BME280;35715;51.570;6.036;2023-04-30T09:44:35;102197.91;;;28.24;32.73
49827;BME280;35715;51.570;6.036;2023-04-30T09:47:01;102189.91;;;28.21;33.08
49827;BME280;35715;51.570;6.036;2023-04-30T09:49:27;102193.31;;;26.80;33.57
49827;BME280;35715;51.570;6.036;2023-04-30T09:51:59;102196.94;;;26.83;34.39
49827;BME280;35715;51.570;6.036;2023-04-30T09:54:25;102191.13;;;26.62;34.80
49827;BME280;35715;51.570;6.036;2023-04-30T09:56:52;102189.25;;;26.56;33.60
49827;BME280;35715;51.570;6.036;2023-04-30T09:59:23;102180.94;;;26.06;35.89
49827;BME280;35715;51.570;6.036;2023-04-30T10:01:52;102188.50;;;25.92;37.17
49827;BME280;35715;51.570;6.036;2023-04-30T10:04:17;102179.84;;;26.32;36.19
49827;BME280;35715;51.570;6.036;2023-04-30T10:06:43;102175.53;;;26.36;35.41
49827;BME280;35715;51.570;6.036;2023-04-30T10:09:08;102176.78;;;25.80;36.18
49827;BME280;35715;51.570;6.036;2023-04-30T10:11:35;102178.94;;;26.30;37.08
49827;BME280;35715;51.570;6.036;2023-04-30T10:14:02;102179.22;;;26.81;36.33
49827;BME280;35715;51.570;6.036;2023-04-30T10:19:13;102173.47;;;25.89;34.38
49827;BME280;35715;51.570;6.036;2023-04-30T10:21:41;102171.13;;;26.36;37.36
49827;BME280;35715;51.570;6.036;2023-04-30T10:24:08;102167.41;;;26.28;35.19
49827;BME280;35715;51.570;6.036;2023-04-30T10:26:33;102168.28;;;25.59;34.65
49827;BME280;35715;51.570;6.036;2023-04-30T10:29:00;102167.16;;;25.84;35.47
49827;BME280;35715;51.570;6.036;2023-04-30T10:31:26;102172.25;;;26.10;34.52
49827;BME280;35715;51.570;6.036;2023-04-30T10:34:03;102167.59;;;26.72;34.02
49827;BME280;35715;51.570;6.036;2023-04-30T10:36:49;102163.88;;;27.07;33.99
49827;BME280;35715;51.570;6.036;2023-04-30T10:39:21;102166.81;;;27.19;33.08
49827;BME280;35715;51.570;6.036;2023-04-30T10:41:48;102158.06;;;27.25;34.79
49827;BME280;35715;51.570;6.036;2023-04-30T10:44:13;102160.97;;;27.37;34.91
49827;BME280;35715;51.570;6.036;2023-04-30T10:46:39;102155.31;;;25.68;35.58
49827;BME280;35715;51.570;6.036;2023-04-30T10:49:09;102160.75;;;23.98;37.99
49827;BME280;35715;51.570;6.036;2023-04-30T10:51:48;102155.09;;;23.87;38.46
49827;BME280;35715;51.570;6.036;2023-04-30T10:54:16;102148.88;;;23.35;38.61
49827;BME280;35715;51.570;6.036;2023-04-30T10:56:46;102151.16;;;22.57;40.46
49827;BME280;35715;51.570;6.036;2023-04-30T10:59:13;102144.28;;;22.83;41.23
49827;BME280;35715;51.570;6.036;2023-04-30T11:01:55;102139.69;;;22.55;40.19
49827;BME280;35715;51.570;6.036;2023-04-30T11:04:20;102137.78;;;22.50;41.12
49827;BME280;35715;51.570;6.036;2023-04-30T11:09:34;102138.69;;;22.09;43.53
49827;BME280;35715;51.570;6.036;2023-04-30T11:12:02;102132.16;;;21.99;43.59
49827;BME280;35715;51.570;6.036;2023-04-30T11:14:27;102132.47;;;21.65;44.34
49827;BME280;35715;51.570;6.036;2023-04-30T11:16:55;102126.75;;;21.15;45.65
49827;BME280;35715;51.570;6.036;2023-04-30T11:19:21;102121.19;;;20.51;45.30
49827;BME280;35715;51.570;6.036;2023-04-30T11:27:11;102113.84;;;20.25;45.30
49827;BME280;35715;51.570;6.036;2023-04-30T11:29:37;102115.81;;;20.66;46.19
49827;BME280;35715;51.570;6.036;2023-04-30T11:32:03;102117.03;;;20.73;45.17
49827;BME280;35715;51.570;6.036;2023-04-30T11:34:28;102108.81;;;20.85;44.91
49827;BME280;35715;51.570;6.036;2023-04-30T11:36:54;102108.56;;;20.61;44.60
49827;BME280;35715;51.570;6.036;2023-04-30T11:39:24;102097.03;;;20.21;44.14
49827;BME280;35715;51.570;6.036;2023-04-30T11:41:50;102100.94;;;19.59;47.86
49827;BME280;35715;51.570;6.036;2023-04-30T11:44:22;102107.91;;;19.42;46.99
49827;BME280;35715;51.570;6.036;2023-04-30T11:46:49;102091.66;;;19.82;45.78
49827;BME280;35715;51.570;6.036;2023-04-30T11:49:15;102091.00;;;20.04;45.88
49827;BME280;35715;51.570;6.036;2023-04-30T11:51:40;102096.06;;;19.83;47.94
49827;BME280;35715;51.570;6.036;2023-04-30T11:54:06;102095.31;;;19.51;45.55
49827;BME280;35715;51.570;6.036;2023-04-30T11:56:32;102088.53;;;19.55;45.34
49827;BME280;35715;51.570;6.036;2023-04-30T11:59:01;102080.56;;;20.06;46.00
49827;BME280;35715;51.570;6.036;2023-04-30T12:01:33;102083.00;;;20.56;48.44
49827;BME280;35715;51.570;6.036;2023-04-30T12:03:58;102079.16;;;20.30;44.71
49827;BME280;35715;51.570;6.036;2023-04-30T12:06:25;102081.84;;;20.32;46.18
49827;BME280;35715;51.570;6.036;2023-04-30T12:08:59;102088.38;;;19.69;45.69
49827;BME280;35715;51.570;6.036;2023-04-30T12:11:29;102086.75;;;19.72;46.69
49827;BME280;35715;51.570;6.036;2023-04-30T12:13:55;102077.66;;;20.35;45.66
49827;BME280;35715;51.570;6.036;2023-04-30T12:16:21;102083.94;;;20.77;46.17
49827;BME280;35715;51.570;6.036;2023-04-30T12:18:48;102077.91;;;20.60;45.74
49827;BME280;35715;51.570;6.036;2023-04-30T12:21:13;102067.53;;;20.25;46.19
49827;BME280;35715;51.570;6.036;2023-04-30T12:23:39;102067.03;;;19.96;45.27
49827;BME280;35715;51.570;6.036;2023-04-30T12:26:04;102062.84;;;20.00;45.20
49827;BME280;35715;51.570;6.036;2023-04-30T12:28:33;102071.63;;;20.00;44.66
49827;BME280;35715;51.570;6.036;2023-04-30T12:30:58;102066.22;;;19.97;43.96
49827;BME280;35715;51.570;6.036;2023-04-30T12:33:23;102066.38;;;20.18;45.84
49827;BME280;35715;51.570;6.036;2023-04-30T12:35:51;102068.09;;;19.82;45.64
49827;BME280;35715;51.570;6.036;2023-04-30T12:38:19;102066.91;;;19.77;45.17
49827;BME280;35715;51.570;6.036;2023-04-30T12:40:47;102062.16;;;20.04;46.13
49827;BME280;35715;51.570;6.036;2023-04-30T12:43:13;102056.56;;;19.96;44.25
49827;BME280;35715;51.570;6.036;2023-04-30T12:48:07;102053.53;;;19.71;44.14
49827;BME280;35715;51.570;6.036;2023-04-30T12:50:32;102050.34;;;19.94;45.51
49827;BME280;35715;51.570;6.036;2023-04-30T12:53:00;102051.75;;;20.06;44.15
49827;BME280;35715;51.570;6.036;2023-04-30T12:55:26;102045.91;;;20.11;43.71
49827;BME280;35715;51.570;6.036;2023-04-30T12:58:10;102052.38;;;19.82;44.28
49827;BME280;35715;51.570;6.036;2023-04-30T13:03:08;102037.06;;;19.55;43.76
49827;BME280;35715;51.570;6.036;2023-04-30T13:05:33;102042.19;;;19.36;44.84
49827;BME280;35715;51.570;6.036;2023-04-30T13:08:07;102033.53;;;19.20;45.66
49827;BME280;35715;51.570;6.036;2023-04-30T13:10:33;102031.94;;;19.40;47.01
49827;BME280;35715;51.570;6.036;2023-04-30T13:12:58;102034.81;;;19.28;46.25
49827;BME280;35715;51.570;6.036;2023-04-30T13:15:24;102026.38;;;19.68;45.97
49827;BME280;35715;51.570;6.036;2023-04-30T13:17:51;102022.88;;;20.04;46.25
49827;BME280;35715;51.570;6.036;2023-04-30T13:20:17;102020.94;;;19.82;43.97
49827;BME280;35715;51.570;6.036;2023-04-30T13:22:42;102017.34;;;19.80;46.55
49827;BME280;35715;51.570;6.036;2023-04-30T13:25:07;102025.16;;;19.09;45.02
49827;BME280;35715;51.570;6.036;2023-04-30T13:27:33;102014.44;;;19.05;46.72
49827;BME280;35715;51.570;6.036;2023-04-30T13:29:58;102008.38;;;19.06;47.62
49827;BME280;35715;51.570;6.036;2023-04-30T13:32:24;102012.63;;;19.20;45.55
49827;BME280;35715;51.570;6.036;2023-04-30T13:34:49;102002.22;;;19.22;45.02
49827;BME280;35715;51.570;6.036;2023-04-30T13:37:16;102003.91;;;19.03;44.88
49827;BME280;35715;51.570;6.036;2023-04-30T13:39:44;102002.97;;;19.03;44.92
49827;BME280;35715;51.570;6.036;2023-04-30T13:42:10;101998.50;;;19.35;44.79
49827;BME280;35715;51.570;6.036;2023-04-30T13:44:35;101993.25;;;19.87;45.63
49827;BME280;35715;51.570;6.036;2023-04-30T13:47:01;101981.34;;;20.31;45.07
49827;BME280;35715;51.570;6.036;2023-04-30T13:49:37;101987.19;;;20.26;43.17
49827;BME280;35715;51.570;6.036;2023-04-30T13:52:03;101989.03;;;20.09;44.26
49827;BME280;35715;51.570;6.036;2023-04-30T13:54:28;101983.13;;;19.77;43.82
49827;BME280;35715;51.570;6.036;2023-04-30T13:56:53;101981.84;;;19.50;43.58